Time;durP1;ratioP1;P1;durP2;ratioP2;P2;SDS_P1;SDS_P2;PMS_P1;PMS_P2;Temp;Humidity;BMP_temperature;BMP_pressure;BME280_temperature;BME280_humidity;BME280_pressure;Samples;Min_cycle;Max_cycle;Signal;HPM_P1;HPM_P2
2022/02/27 00:01:05;;;;;;;17.70;7.40;;;2.70;99.90;;;;;;5071066;28;20380;-55
2022/02/27 00:03:30;;;;;;;16.17;6.60;;;2.70;99.90;;;;;;5070123;28;20466;-55
2022/02/27 00:05:56;;;;;;;16.73;5.88;;;2.70;99.90;;;;;;5071105;28;20407;-55
2022/02/27 00:08:22;;;;;;;15.40;5.43;;;2.70;99.90;;;;;;5070636;28;20809;-55
2022/02/27 00:10:47;;;;;;;13.18;4.85;;;2.60;99.90;;;;;;5054537;28;20481;-55
2022/02/27 00:13:13;;;;;;;11.25;4.75;;;2.60;99.90;;;;;;5059794;28;20750;-55
2022/02/27 00:15:39;;;;;;;11.97;5.10;;;2.60;99.90;;;;;;5044580;28;20407;-55
2022/02/27 00:18:05;;;;;;;10.48;4.65;;;2.60;99.90;;;;;;5062303;28;20439;-55
2022/02/27 00:20:31;;;;;;;14.20;4.33;;;3.80;99.90;;;;;;5068953;28;20415;-55
2022/02/27 00:22:57;;;;;;;12.10;3.88;;;2.40;99.90;;;;;;5063531;28;20898;-55
2022/02/27 00:25:22;;;;;;;11.82;4.50;;;2.50;99.90;;;;;;5048765;28;20412;-55
2022/02/27 00:27:48;;;;;;;15.27;4.82;;;2.40;99.90;;;;;;5031134;28;20397;-55
2022/02/27 00:30:14;;;;;;;15.23;5.00;;;2.40;99.90;;;;;;5049301;28;20373;-55
2022/02/27 00:32:39;;;;;;;12.88;4.57;;;2.30;99.90;;;;;;5048428;28;20378;-56
2022/02/27 00:35:06;;;;;;;12.80;4.70;;;2.30;99.90;;;;;;5049234;28;20402;-56
2022/02/27 00:37:32;;;;;;;11.80;4.90;;;2.30;99.90;;;;;;5056270;28;20395;-55
2022/02/27 00:39:58;;;;;;;12.20;4.00;;;2.20;99.90;;;;;;5068017;28;20526;-55
2022/02/27 00:42:24;;;;;;;13.70;4.30;;;2.20;99.90;;;;;;5051363;28;20972;-56
2022/02/27 00:44:49;;;;;;;19.17;4.97;;;2.60;99.90;;;;;;5067770;28;20387;-55
2022/02/27 00:47:15;;;;;;;11.10;4.50;;;2.20;99.90;;;;;;5069699;28;20380;-55
2022/02/27 00:49:40;;;;;;;11.30;4.50;;;2.20;99.90;;;;;;5069410;28;20422;-55
2022/02/27 00:52:06;;;;;;;10.77;4.30;;;2.10;99.90;;;;;;5070195;28;20485;-55
2022/02/27 00:54:32;;;;;;;12.18;4.50;;;2.10;99.90;;;;;;5069309;28;20469;-57
2022/02/27 00:56:58;;;;;;;14.93;5.17;;;2.10;99.90;;;;;;5068992;28;20403;-55
2022/02/27 00:59:23;;;;;;;13.87;4.50;;;2.10;99.90;;;;;;5069759;28;20383;-55
2022/02/27 01:01:49;;;;;;;10.50;5.10;;;2.00;99.90;;;;;;5069098;28;20378;-55
2022/02/27 01:04:15;;;;;;;10.87;4.20;;;2.00;99.90;;;;;;5052104;28;20395;-55
2022/02/27 01:06:40;;;;;;;11.80;4.00;;;2.00;99.90;;;;;;5068974;28;20384;-55
2022/02/27 01:09:07;;;;;;;13.93;4.60;;;2.30;99.90;;;;;;5063038;28;20400;-55
2022/02/27 01:11:33;;;;;;;11.00;4.30;;;1.90;99.90;;;;;;5048159;28;20381;-55
2022/02/27 01:14:01;;;;;;;12.50;3.90;;;1.90;99.90;;;;;;5038574;28;20388;-55
2022/02/27 01:16:27;;;;;;;16.17;4.78;;;3.00;99.90;;;;;;5069406;28;20829;-58
2022/02/27 01:18:53;;;;;;;12.23;4.20;;;2.10;99.90;;;;;;5058356;28;20442;-55
2022/02/27 01:21:19;;;;;;;11.87;4.63;;;2.00;99.90;;;;;;5051735;28;20756;-55
2022/02/27 01:23:47;;;;;;;10.98;4.60;;;2.00;99.90;;;;;;5051168;28;20388;-55
2022/02/27 01:26:14;;;;;;;12.57;4.80;;;2.00;99.90;;;;;;5069125;28;20384;-55
2022/02/27 01:28:40;;;;;;;10.70;3.83;;;1.90;99.90;;;;;;5068594;28;20398;-55
2022/02/27 01:31:07;;;;;;;11.60;3.70;;;1.90;99.90;;;;;;5069497;28;20375;-55
2022/02/27 01:33:33;;;;;;;12.77;4.40;;;1.80;99.90;;;;;;5068754;28;20387;-55
2022/02/27 01:36:00;;;;;;;10.73;4.80;;;1.70;99.90;;;;;;5069424;28;20402;-55
2022/02/27 01:38:26;;;;;;;13.80;4.68;;;1.50;99.90;;;;;;5069329;28;20444;-55
2022/02/27 01:40:53;;;;;;;12.30;4.40;;;1.30;99.90;;;;;;5069209;28;20392;-55
2022/02/27 01:43:18;;;;;;;9.60;4.72;;;1.30;99.90;;;;;;5069032;28;20452;-55
2022/02/27 01:45:44;;;;;;;12.18;4.60;;;1.20;99.90;;;;;;5068356;28;20375;-55
2022/02/27 01:48:10;;;;;;;10.60;4.40;;;1.80;99.90;;;;;;5069484;28;20450;-55
2022/02/27 01:50:36;;;;;;;15.87;4.80;;;0.90;99.90;;;;;;5068240;28;20468;-53
2022/02/27 01:53:02;;;;;;;13.30;5.20;;;0.80;99.90;;;;;;5069342;28;20558;-53
2022/02/27 01:55:27;;;;;;;11.05;4.78;;;0.70;99.90;;;;;;5069125;28;20438;-57
2022/02/27 01:57:54;;;;;;;14.73;4.25;;;0.70;99.90;;;;;;5068702;28;20887;-53
2022/02/27 02:00:19;;;;;;;13.18;4.88;;;0.70;99.90;;;;;;5069257;28;20371;-54
2022/02/27 02:02:46;;;;;;;13.52;4.80;;;0.60;99.90;;;;;;5068964;28;20429;-53
2022/02/27 02:05:13;;;;;;;9.85;4.85;;;0.60;99.90;;;;;;5068800;28;20412;-53
2022/02/27 02:07:40;;;;;;;13.43;4.85;;;0.60;99.90;;;;;;5068305;28;20355;-54
2022/02/27 02:10:07;;;;;;;12.32;4.97;;;0.60;99.90;;;;;;5068906;28;20859;-53
2022/02/27 02:12:33;;;;;;;14.57;5.20;;;0.50;99.90;;;;;;5068302;28;20391;-54
2022/02/27 02:14:59;;;;;;;11.15;4.70;;;0.50;99.90;;;;;;5069143;28;20439;-53
2022/02/27 02:17:25;;;;;;;12.93;4.70;;;0.50;99.90;;;;;;5068899;28;20484;-53
2022/02/27 02:19:53;;;;;;;12.27;4.97;;;0.50;99.90;;;;;;5068597;28;20392;-53
2022/02/27 02:22:19;;;;;;;14.67;4.93;;;0.50;99.90;;;;;;5068597;28;21006;-53
2022/02/27 02:24:44;;;;;;;13.43;4.63;;;0.50;99.90;;;;;;5068067;28;20380;-53
2022/02/27 02:27:11;;;;;;;10.70;4.77;;;0.50;99.90;;;;;;5069040;28;20380;-54
2022/02/27 02:29:37;;;;;;;14.80;5.20;;;0.50;99.90;;;;;;5068182;28;20383;-53
2022/02/27 02:32:03;;;;;;;12.32;4.22;;;0.40;99.90;;;;;;5069023;28;20437;-54
2022/02/27 02:34:29;;;;;;;11.85;4.50;;;0.30;99.90;;;;;;5068768;28;20391;-56
2022/02/27 02:36:56;;;;;;;11.80;4.45;;;0.70;99.90;;;;;;5069572;28;20384;-54
2022/02/27 02:39:24;;;;;;;12.35;4.10;;;0.30;99.90;;;;;;5072585;28;20426;-56
2022/02/27 02:41:50;;;;;;;12.75;4.60;;;0.30;99.90;;;;;;5053789;28;20441;-53
2022/02/27 02:44:16;;;;;;;11.23;4.70;;;0.30;99.90;;;;;;5072144;28;20454;-53
2022/02/27 02:46:43;;;;;;;13.85;4.70;;;1.10;99.90;;;;;;5071564;28;20379;-54
2022/02/27 02:49:10;;;;;;;10.48;4.22;;;0.40;99.90;;;;;;5072277;28;20392;-53
2022/02/27 02:51:37;;;;;;;12.05;4.50;;;0.30;99.90;;;;;;5071463;28;20386;-54
2022/02/27 02:54:03;;;;;;;12.63;4.65;;;0.30;99.90;;;;;;5072018;28;21137;-54
2022/02/27 02:56:29;;;;;;;12.20;4.47;;;0.30;99.90;;;;;;5071740;28;20869;-56
2022/02/27 02:58:55;;;;;;;12.87;4.97;;;0.30;99.90;;;;;;5071334;28;20391;-54
2022/02/27 03:01:22;;;;;;;13.77;5.00;;;0.30;99.90;;;;;;5061533;28;20405;-53
2022/02/27 03:03:50;;;;;;;10.95;5.00;;;0.20;99.90;;;;;;5056188;28;20386;-54
2022/02/27 03:06:16;;;;;;;15.35;4.80;;;0.10;99.90;;;;;;5071982;28;20430;-53
2022/02/27 03:08:44;;;;;;;11.50;4.50;;;1.30;99.90;;;;;;5067949;28;20381;-53
2022/02/27 03:11:10;;;;;;;13.40;4.53;;;0.10;99.90;;;;;;5051969;28;20477;-54
2022/02/27 03:13:37;;;;;;;9.68;4.43;;;0.50;99.90;;;;;;5033336;28;20381;-53
2022/02/27 03:16:04;;;;;;;11.90;4.40;;;0.00;99.90;;;;;;5051267;28;20886;-55
2022/02/27 03:18:30;;;;;;;15.07;4.35;;;0.00;99.90;;;;;;5050056;28;20882;-56
2022/02/27 03:20:58;;;;;;;15.77;5.57;;;0.00;99.90;;;;;;5060942;28;20372;-54
2022/02/27 03:23:24;;;;;;;18.17;5.20;;;0.10;99.90;;;;;;5071646;28;20383;-55
2022/02/27 03:25:49;;;;;;;13.27;4.68;;;0.70;99.90;;;;;;5070891;28;20929;-54
2022/02/27 03:28:15;;;;;;;11.43;5.20;;;0.20;99.90;;;;;;5071551;28;20392;-54
2022/02/27 03:30:41;;;;;;;13.10;5.10;;;0.20;99.90;;;;;;5071115;28;20384;-54
2022/02/27 03:33:07;;;;;;;15.32;5.00;;;0.30;99.90;;;;;;5071594;28;20888;-54
2022/02/27 03:35:34;;;;;;;12.32;4.40;;;0.20;99.90;;;;;;5070612;28;20451;-57
2022/02/27 03:37:59;;;;;;;13.50;5.10;;;0.10;99.90;;;;;;5071739;28;20372;-54
2022/02/27 03:40:25;;;;;;;12.88;5.10;;;0.10;99.90;;;;;;5071395;28;20417;-54
2022/02/27 03:42:51;;;;;;;17.07;5.60;;;0.10;99.90;;;;;;5070701;28;21029;-54
2022/02/27 03:45:17;;;;;;;14.33;5.50;;;0.00;99.90;;;;;;5071476;28;20384;-54
2022/02/27 03:47:43;;;;;;;11.75;4.55;;;-0.10;99.90;;;;;;5070094;28;20400;-54
2022/02/27 03:50:11;;;;;;;10.88;4.80;;;-0.10;99.90;;;;;;5060687;28;20469;-54
2022/02/27 03:52:37;;;;;;;14.50;4.97;;;-0.20;99.90;;;;;;5050179;28;20384;-54
2022/02/27 03:55:11;;;;;;;13.73;4.90;;;-0.20;99.90;;;;;;5050988;28;20409;-54
2022/02/27 03:57:37;;;;;;;15.40;5.00;;;-0.20;99.90;;;;;;5050349;28;20413;-54
2022/02/27 04:00:06;;;;;;;13.60;5.10;;;-0.20;99.90;;;;;;5051115;28;20784;-54
2022/02/27 04:02:31;;;;;;;16.08;5.20;;;-0.20;99.90;;;;;;5050700;28;20468;-56
2022/02/27 04:04:57;;;;;;;13.60;5.50;;;-0.20;99.90;;;;;;5050348;28;21184;-54
2022/02/27 04:07:22;;;;;;;15.30;5.00;;;-0.30;99.90;;;;;;5050935;28;20488;-55
2022/02/27 04:09:48;;;;;;;15.07;4.63;;;-0.30;99.90;;;;;;5050236;28;20384;-54
2022/02/27 04:12:14;;;;;;;16.40;5.25;;;-0.20;99.90;;;;;;5050907;28;20386;-54
2022/02/27 04:14:39;;;;;;;13.27;5.37;;;-0.20;99.90;;;;;;5050030;28;20439;-54
2022/02/27 04:17:05;;;;;;;13.07;5.00;;;-0.30;99.90;;;;;;5050430;28;20749;-54
2022/02/27 04:19:31;;;;;;;12.82;4.60;;;-0.20;99.90;;;;;;5050172;28;20938;-57
2022/02/27 04:21:56;;;;;;;11.15;4.70;;;-0.20;99.90;;;;;;5050104;28;20410;-54
2022/02/27 04:24:23;;;;;;;10.73;4.90;;;-0.30;99.90;;;;;;5050154;28;20468;-53
2022/02/27 04:26:51;;;;;;;12.77;5.15;;;-0.30;99.90;;;;;;5049696;28;20381;-54
2022/02/27 04:29:18;;;;;;;16.17;4.97;;;-0.40;99.90;;;;;;5050578;28;20713;-54
2022/02/27 04:31:43;;;;;;;12.57;5.20;;;-0.40;99.90;;;;;;5049473;28;20401;-54
2022/02/27 04:34:09;;;;;;;15.02;5.20;;;-0.50;99.90;;;;;;5050141;28;20389;-54
2022/02/27 04:36:35;;;;;;;16.20;5.40;;;-0.50;99.90;;;;;;5049653;28;20867;-57
2022/02/27 04:39:00;;;;;;;13.27;5.10;;;-0.50;99.90;;;;;;5050285;28;20473;-53
2022/02/27 04:41:26;;;;;;;14.10;4.93;;;-0.50;99.90;;;;;;5050044;28;20399;-54
2022/02/27 04:43:52;;;;;;;13.63;5.10;;;-0.50;99.90;;;;;;5049634;28;20545;-54
2022/02/27 04:46:17;;;;;;;10.90;5.17;;;-0.60;99.90;;;;;;5049983;28;20799;-55
2022/02/27 04:48:43;;;;;;;12.90;4.80;;;-0.60;99.90;;;;;;5049612;28;20447;-54
2022/02/27 04:51:09;;;;;;;11.55;4.95;;;-0.60;99.90;;;;;;5050121;28;20382;-53
2022/02/27 04:53:35;;;;;;;15.10;5.23;;;-0.60;99.90;;;;;;5049328;28;20381;-56
2022/02/27 04:56:02;;;;;;;11.40;5.13;;;-0.50;99.90;;;;;;5049908;28;20416;-53
2022/02/27 04:58:28;;;;;;;12.88;5.30;;;-0.60;99.90;;;;;;5050098;28;20478;-53
2022/02/27 05:00:54;;;;;;;11.53;4.70;;;-0.60;99.90;;;;;;5048691;28;20486;-53
2022/02/27 05:03:20;;;;;;;17.40;5.40;;;-0.60;99.90;;;;;;5049445;28;20388;-53
2022/02/27 05:05:45;;;;;;;14.10;5.60;;;-0.60;99.90;;;;;;5049156;28;20396;-53
2022/02/27 05:08:12;;;;;;;11.55;5.10;;;-0.70;99.90;;;;;;5049509;28;20378;-53
2022/02/27 05:10:39;;;;;;;14.50;5.33;;;-0.70;99.90;;;;;;5048825;28;20396;-53
2022/02/27 05:13:05;;;;;;;10.05;5.13;;;-0.70;99.90;;;;;;5049850;28;20380;-53
2022/02/27 05:15:31;;;;;;;15.90;5.60;;;-0.80;99.90;;;;;;5049729;28;20409;-53
2022/02/27 05:17:57;;;;;;;14.00;6.10;;;-0.70;99.90;;;;;;5049384;28;20428;-53
2022/02/27 05:20:24;;;;;;;14.30;5.88;;;-0.70;99.90;;;;;;5049711;28;20386;-53
2022/02/27 05:22:50;;;;;;;11.52;5.60;;;-0.80;99.90;;;;;;5049088;28;20905;-53
2022/02/27 05:25:19;;;;;;;13.17;5.20;;;-0.80;99.90;;;;;;5049570;28;20843;-53
2022/02/27 05:27:48;;;;;;;13.73;5.40;;;-0.70;99.90;;;;;;5052737;28;20483;-54
2022/02/27 05:30:14;;;;;;;12.13;5.75;;;-0.70;99.90;;;;;;5069011;28;20771;-53
2022/02/27 05:32:40;;;;;;;14.38;5.90;;;-0.70;99.90;;;;;;5068279;28;20433;-53
2022/02/27 05:35:06;;;;;;;16.95;6.22;;;-0.80;99.90;;;;;;5069597;28;20403;-53
2022/02/27 05:37:32;;;;;;;13.77;6.38;;;-0.80;99.90;;;;;;5069273;28;20395;-56
2022/02/27 05:39:58;;;;;;;17.70;6.75;;;-0.70;99.90;;;;;;5050984;28;20379;-53
2022/02/27 05:42:24;;;;;;;16.97;6.37;;;-0.80;99.90;;;;;;5069837;28;20780;-53
2022/02/27 05:44:50;;;;;;;14.48;5.70;;;0.50;99.90;;;;;;5068304;28;20775;-53
2022/02/27 05:47:16;;;;;;;13.00;5.75;;;-0.80;99.90;;;;;;5067530;28;20400;-54
2022/02/27 05:49:42;;;;;;;16.23;5.95;;;-0.80;99.90;;;;;;5050468;28;20389;-53
2022/02/27 05:52:07;;;;;;;14.20;6.90;;;-0.90;99.90;;;;;;5068928;28;20454;-54
2022/02/27 05:54:33;;;;;;;14.70;6.30;;;-0.80;99.90;;;;;;5068549;28;20857;-55
2022/02/27 05:56:59;;;;;;;15.07;6.20;;;-1.60;99.90;;;;;;5068439;28;20392;-53
2022/02/27 05:59:25;;;;;;;12.40;5.47;;;-0.80;99.90;;;;;;5068565;28;20737;-53
2022/02/27 06:01:51;;;;;;;14.00;5.30;;;-0.90;99.90;;;;;;5068052;28;20399;-53
2022/02/27 06:04:17;;;;;;;14.32;6.50;;;-0.90;99.90;;;;;;5069031;28;20376;-55
2022/02/27 06:06:43;;;;;;;14.23;6.63;;;-1.00;99.90;;;;;;5068294;28;20394;-55
2022/02/27 06:09:08;;;;;;;20.00;6.60;;;-0.30;99.90;;;;;;5050843;28;20384;-53
2022/02/27 06:11:35;;;;;;;15.03;6.00;;;-0.90;99.90;;;;;;5070929;28;20730;-56
2022/02/27 06:14:01;;;;;;;15.88;6.57;;;-0.40;99.90;;;;;;5073190;28;20793;-54
2022/02/27 06:16:26;;;;;;;16.20;6.15;;;-0.80;99.90;;;;;;5072703;28;20415;-54
2022/02/27 06:18:52;;;;;;;16.83;7.03;;;-0.80;99.90;;;;;;5072035;28;20497;-54
2022/02/27 06:21:18;;;;;;;17.53;6.37;;;-0.70;99.90;;;;;;5072317;28;20434;-54
2022/02/27 06:23:44;;;;;;;14.83;7.37;;;-0.60;99.90;;;;;;5063371;28;20937;-54
2022/02/27 06:26:09;;;;;;;14.95;6.03;;;-0.60;99.90;;;;;;5054561;28;20401;-54
2022/02/27 06:28:35;;;;;;;14.25;5.78;;;-0.60;99.90;;;;;;5062015;28;20847;-57
2022/02/27 06:31:01;;;;;;;17.97;7.10;;;-1.60;99.90;;;;;;5072459;28;20889;-55
2022/02/27 06:33:26;;;;;;;12.90;6.60;;;-0.60;99.90;;;;;;5064428;28;20384;-54
2022/02/27 06:35:52;;;;;;;15.55;6.43;;;-0.30;99.90;;;;;;5051840;28;20424;-54
2022/02/27 06:38:18;;;;;;;13.45;5.22;;;0.20;99.90;;;;;;5062733;28;20805;-55
2022/02/27 06:40:43;;;;;;;18.23;7.07;;;0.60;99.90;;;;;;5069157;28;20396;-54
2022/02/27 06:43:09;;;;;;;13.02;5.70;;;1.60;99.90;;;;;;5071560;28;20914;-54
2022/02/27 06:45:35;;;;;;;17.75;5.90;;;0.70;99.90;;;;;;5071993;28;20475;-58
2022/02/27 06:48:01;;;;;;;15.20;5.70;;;0.80;99.90;;;;;;5055317;28;20861;-55
2022/02/27 06:50:26;;;;;;;14.47;6.40;;;0.90;99.90;;;;;;5059859;28;20406;-55
2022/02/27 06:52:52;;;;;;;14.25;5.75;;;1.10;99.90;;;;;;5060524;28;20490;-55
2022/02/27 06:55:19;;;;;;;12.85;5.38;;;1.80;99.90;;;;;;5061507;28;20407;-55
2022/02/27 06:57:46;;;;;;;13.13;4.80;;;1.70;99.90;;;;;;5038832;28;20417;-55
2022/02/27 07:00:14;;;;;;;10.07;4.40;;;3.30;99.90;;;;;;5052638;28;20401;-56
2022/02/27 07:02:40;;;;;;;9.32;4.78;;;3.90;99.90;;;;;;5051654;28;20402;-55
2022/02/27 07:05:06;;;;;;;12.20;4.90;;;5.20;99.90;;;;;;5054198;28;20419;-56
2022/02/27 07:07:32;;;;;;;14.55;5.60;;;6.40;99.90;;;;;;5069252;28;20439;-57
2022/02/27 07:10:00;;;;;;;12.63;6.45;;;9.30;99.90;;;;;;5058363;28;20944;-57
2022/02/27 07:12:30;;;;;;;15.35;8.20;;;9.60;99.90;;;;;;5057657;28;20394;-56
2022/02/27 07:14:57;;;;;;;12.35;6.15;;;10.90;98.90;;;;;;5062737;28;20455;-55
2022/02/27 07:17:24;;;;;;;12.68;8.00;;;11.40;95.40;;;;;;5051342;28;20411;-55
2022/02/27 07:19:50;;;;;;;16.27;12.27;;;12.00;92.90;;;;;;5064624;28;20400;-55
2022/02/27 07:22:15;;;;;;;13.63;11.43;;;12.70;90.00;;;;;;5070166;28;20400;-55
2022/02/27 07:24:41;;;;;;;14.52;10.35;;;13.20;87.10;;;;;;5060137;28;20399;-55
2022/02/27 07:27:07;;;;;;;13.30;11.05;;;13.00;84.20;;;;;;5065077;28;20551;-56
2022/02/27 07:29:33;;;;;;;13.00;6.10;;;13.00;83.10;;;;;;5069058;28;20414;-58
2022/02/27 07:31:59;;;;;;;12.75;7.18;;;13.60;80.80;;;;;;5048427;28;20405;-56
2022/02/27 07:34:25;;;;;;;11.95;8.93;;;14.40;77.70;;;;;;5061650;28;20471;-56
2022/02/27 07:36:55;;;;;;;12.57;6.53;;;15.10;74.30;;;;;;5064852;28;20727;-56
2022/02/27 07:39:22;;;;;;;13.40;6.47;;;15.60;70.70;;;;;;5070892;28;20449;-56
2022/02/27 07:41:48;;;;;;;11.17;6.23;;;15.10;71.00;;;;;;5067830;28;20419;-57
2022/02/27 07:44:13;;;;;;;12.73;9.70;;;14.80;69.00;;;;;;5050079;28;20405;-57
2022/02/27 07:46:39;;;;;;;12.55;6.30;;;14.90;69.30;;;;;;5066612;28;20406;-56
2022/02/27 07:49:06;;;;;;;11.63;5.85;;;15.40;69.40;;;;;;5062099;28;20417;-56
2022/02/27 07:51:32;;;;;;;15.13;6.80;;;14.80;68.70;;;;;;5054459;28;20466;-56
2022/02/27 07:53:57;;;;;;;11.27;6.47;;;14.90;69.00;;;;;;5057465;28;20405;-56
2022/02/27 07:56:23;;;;;;;12.60;7.53;;;15.50;65.90;;;;;;5058092;28;20414;-57
2022/02/27 07:58:49;;;;;;;10.40;6.37;;;15.40;66.30;;;;;;5055487;28;20457;-56
2022/02/27 08:01:15;;;;;;;13.13;6.35;;;15.60;65.10;;;;;;5059010;28;20389;-56
2022/02/27 08:03:41;;;;;;;11.52;6.45;;;15.30;67.50;;;;;;5052976;28;20486;-56
2022/02/27 08:06:06;;;;;;;15.93;6.30;;;15.60;66.60;;;;;;5052280;28;20393;-57
2022/02/27 08:08:33;;;;;;;13.00;6.37;;;16.20;64.10;;;;;;5052401;28;20841;-56
2022/02/27 08:10:59;;;;;;;12.45;6.90;;;17.10;61.20;;;;;;5052073;28;20426;-57
2022/02/27 08:13:25;;;;;;;12.27;6.70;;;17.30;58.60;;;;;;5057289;28;20425;-57
2022/02/27 08:15:51;;;;;;;13.17;6.53;;;17.60;57.30;;;;;;5057296;28;20864;-57
2022/02/27 08:18:19;;;;;;;11.45;6.40;;;17.30;58.10;;;;;;5062977;28;20762;-57
2022/02/27 08:20:45;;;;;;;12.90;6.50;;;17.30;57.30;;;;;;5056935;28;20873;-57
2022/02/27 08:23:10;;;;;;;12.95;6.40;;;17.80;57.40;;;;;;5061906;28;20398;-57
2022/02/27 08:25:36;;;;;;;12.48;6.20;;;;;;;;;;5056396;28;20479;-59
2022/02/27 08:28:02;;;;;;;12.17;6.40;;;17.70;55.40;;;;;;5051044;28;20874;-57
2022/02/27 08:30:28;;;;;;;10.18;5.70;;;17.60;54.50;;;;;;5059442;28;20400;-56
2022/02/27 08:32:53;;;;;;;12.20;6.60;;;17.60;54.80;;;;;;5068793;28;20407;-56
2022/02/27 08:35:19;;;;;;;12.80;6.80;;;18.00;53.70;;;;;;5060599;28;20408;-57
2022/02/27 08:37:45;;;;;;;13.07;6.60;;;18.50;53.30;;;;;;5060054;28;20382;-56
2022/02/27 08:40:11;;;;;;;14.40;12.43;;;18.30;52.80;;;;;;5065670;28;20472;-57
2022/02/27 08:42:37;;;;;;;14.47;12.97;;;18.40;52.30;;;;;;5057716;28;20406;-59
2022/02/27 08:45:03;;;;;;;16.48;14.90;;;18.30;52.50;;;;;;5064880;28;20978;-57
2022/02/27 08:47:28;;;;;;;15.98;13.88;;;17.90;53.40;;;;;;5060221;28;20411;-57
2022/02/27 08:49:54;;;;;;;13.73;12.43;;;17.00;53.50;;;;;;5051374;28;20719;-57
2022/02/27 08:52:20;;;;;;;14.95;9.57;;;17.20;54.00;;;;;;5056229;28;20733;-57
2022/02/27 08:54:48;;;;;;;12.37;8.37;;;18.30;52.60;;;;;;5062384;28;20506;-57
2022/02/27 08:57:14;;;;;;;12.23;7.60;;;18.50;51.90;;;;;;5065890;28;20399;-57
2022/02/27 08:59:40;;;;;;;12.63;8.20;;;18.90;50.30;;;;;;5053755;28;20381;-57
2022/02/27 09:02:07;;;;;;;12.40;6.80;;;19.10;50.10;;;;;;5058896;28;20406;-57
2022/02/27 09:04:32;;;;;;;10.30;6.45;;;18.20;50.70;;;;;;5054928;28;20430;-58
2022/02/27 09:06:58;;;;;;;13.80;6.70;;;18.00;50.90;;;;;;5066136;28;20912;-57
2022/02/27 09:09:24;;;;;;;12.50;6.37;;;17.30;52.80;;;;;;5053726;28;20883;-58
2022/02/27 09:11:52;;;;;;;13.73;6.72;;;17.60;52.60;;;;;;5052124;28;20407;-57
2022/02/27 09:14:18;;;;;;;11.45;6.30;;;18.20;60.60;;;;;;5068611;28;20410;-57
2022/02/27 09:16:43;;;;;;;14.83;11.73;;;18.60;50.50;;;;;;5046524;28;20406;-57
2022/02/27 09:19:09;;;;;;;14.38;12.95;;;18.00;49.80;;;;;;5055366;28;20401;-56
2022/02/27 09:21:34;;;;;;;14.73;13.20;;;17.70;51.60;;;;;;5056781;28;20410;-57
2022/02/27 09:24:03;;;;;;;15.73;13.10;;;17.30;51.40;;;;;;5051838;28;20471;-55
2022/02/27 09:26:28;;;;;;;14.23;12.73;;;16.50;52.70;;;;;;5061988;28;20746;-55
2022/02/27 09:28:54;;;;;;;13.87;12.33;;;15.50;54.10;;;;;;5056919;28;20404;-55
2022/02/27 09:31:19;;;;;;;14.47;12.87;;;15.60;54.40;;;;;;5062420;28;20406;-54
2022/02/27 09:33:45;;;;;;;12.57;10.88;;;15.50;54.10;;;;;;5060394;28;20388;-54
2022/02/27 09:36:11;;;;;;;12.60;11.30;;;15.50;53.30;;;;;;5059477;28;20406;-53
2022/02/27 09:38:38;;;;;;;13.33;10.77;;;14.40;56.20;;;;;;5047582;28;20413;-58
2022/02/27 09:41:04;;;;;;;11.93;10.35;;;12.80;55.60;;;;;;5047701;28;20405;-54
2022/02/27 09:43:30;;;;;;;12.93;9.77;;;12.50;57.50;;;;;;5046842;28;20802;-54
2022/02/27 09:45:56;;;;;;;12.65;9.60;;;12.10;57.10;;;;;;5048328;28;20389;-54
2022/02/27 09:48:22;;;;;;;11.43;9.82;;;12.70;57.60;;;;;;5051985;28;20500;-54
2022/02/27 09:50:49;;;;;;;12.82;11.05;;;12.10;57.70;;;;;;5057314;28;20401;-55
2022/02/27 09:53:15;;;;;;;11.90;10.70;;;12.60;58.10;;;;;;5051442;28;20417;-55
2022/02/27 09:55:41;;;;;;;12.85;11.25;;;13.50;58.30;;;;;;5050817;28;20498;-54
2022/02/27 09:58:07;;;;;;;13.15;10.20;;;13.20;56.60;;;;;;5054431;28;20482;-54
2022/02/27 10:00:33;;;;;;;13.25;10.07;;;13.20;57.40;;;;;;5055073;28;20876;-54
2022/02/27 10:03:13;;;;;;;12.35;8.60;;;12.30;57.90;;;;;;5051587;28;20451;-53
2022/02/27 10:05:43;;;;;;;11.40;10.20;;;11.20;58.70;;;;;;5049641;28;20499;-56
2022/02/27 10:08:10;;;;;;;12.30;9.60;;;10.50;58.90;;;;;;5051897;28;20420;-53
2022/02/27 10:10:37;;;;;;;10.13;5.10;;;9.10;62.90;;;;;;5056435;28;20381;-58
2022/02/27 10:13:06;;;;;;;8.87;4.37;;;9.30;66.70;;;;;;5053144;28;20878;-56
2022/02/27 10:15:32;;;;;;;9.77;6.20;;;9.30;61.10;;;;;;5055372;28;20417;-56
2022/02/27 10:17:58;;;;;;;11.00;8.07;;;9.80;60.70;;;;;;5058905;28;20417;-57
2022/02/27 10:20:25;;;;;;;11.23;8.30;;;10.60;58.80;;;;;;5058863;28;20455;-57
2022/02/27 10:22:53;;;;;;;9.52;7.93;;;10.90;56.10;;;;;;5068192;28;20798;-56
2022/02/27 10:25:22;;;;;;;10.30;7.75;;;10.70;56.70;;;;;;5055678;28;20501;-56
2022/02/27 10:27:55;;;;;;;11.00;7.38;;;11.20;57.70;;;;;;5058471;28;20401;-57
2022/02/27 10:30:33;;;;;;;9.40;7.05;;;11.80;57.10;;;;;;5055274;28;20413;-56
2022/02/27 10:33:01;;;;;;;11.20;8.40;;;11.10;55.50;;;;;;5057000;28;21038;-57
2022/02/27 10:35:48;;;;;;;10.02;7.72;;;11.00;57.40;;;;;;5057307;28;20412;-56
2022/02/27 10:38:17;;;;;;;8.65;7.70;;;10.80;58.10;;;;;;5049813;28;20767;-56
2022/02/27 10:40:49;;;;;;;10.35;8.32;;;11.00;57.30;;;;;;5052727;28;20426;-56
2022/02/27 10:43:18;;;;;;;11.38;8.20;;;11.50;56.50;;;;;;5053262;28;20500;-56
2022/02/27 10:45:44;;;;;;;11.00;7.00;;;11.00;57.10;;;;;;5077917;28;20432;-56
2022/02/27 10:48:16;;;;;;;10.52;8.18;;;10.50;56.90;;;;;;5056012;28;20970;-56
2022/02/27 10:50:44;;;;;;;9.90;7.80;;;11.40;56.70;;;;;;5062018;28;20390;-57
2022/02/27 10:53:13;;;;;;;10.03;7.60;;;11.80;55.70;;;;;;5065738;28;20408;-56
2022/02/27 10:55:39;;;;;;;10.23;7.50;;;10.60;55.70;;;;;;5068485;28;20428;-58
2022/02/27 10:58:05;;;;;;;9.07;7.40;;;10.10;58.40;;;;;;5052708;28;20840;-56
2022/02/27 11:00:33;;;;;;;12.27;7.75;;;9.80;58.20;;;;;;5055080;28;20866;-56
2022/02/27 11:03:02;;;;;;;9.15;5.97;;;9.80;57.90;;;;;;5055523;28;20399;-59
2022/02/27 11:05:31;;;;;;;9.88;6.45;;;10.10;56.20;;;;;;5067510;28;20420;-56
2022/02/27 11:07:58;;;;;;;7.20;3.10;;;10.20;56.20;;;;;;5058043;28;21008;-56
2022/02/27 11:10:33;;;;;;;7.40;4.63;;;10.70;54.30;;;;;;5064043;28;20416;-56
2022/02/27 11:13:14;;;;;;;10.57;8.20;;;10.10;54.30;;;;;;5058180;28;20664;-56
2022/02/27 11:15:40;;;;;;;8.93;7.72;;;10.30;55.90;;;;;;5064508;28;20415;-57
2022/02/27 11:18:07;;;;;;;10.00;8.10;;;10.40;55.00;;;;;;5055775;28;20409;-56
2022/02/27 11:20:33;;;;;;;10.18;7.50;;;11.40;55.90;;;;;;5063042;28;20404;-56
2022/02/27 11:22:59;;;;;;;8.85;7.95;;;10.90;54.50;;;;;;5059361;28;20486;-56
2022/02/27 11:25:27;;;;;;;9.27;8.10;;;11.20;53.50;;;;;;5058114;28;20409;-55
2022/02/27 11:28:01;;;;;;;8.88;8.07;;;11.00;52.40;;;;;;5058547;28;20409;-55
2022/02/27 11:30:43;;;;;;;9.50;8.27;;;11.00;53.50;;;;;;5066657;28;20477;-55
2022/02/27 11:33:20;;;;;;;11.20;8.13;;;10.80;53.20;;;;;;5066136;28;20403;-57
2022/02/27 11:35:51;;;;;;;8.70;7.45;;;10.90;54.20;;;;;;5063956;28;20797;-55
2022/02/27 11:38:30;;;;;;;10.10;7.77;;;10.80;54.30;;;;;;5071585;28;20507;-56
2022/02/27 11:41:11;;;;;;;9.25;7.85;;;10.30;53.50;;;;;;5078817;28;20405;-57
2022/02/27 11:43:43;;;;;;;9.32;7.43;;;10.10;54.70;;;;;;5072510;28;20439;-57
2022/02/27 11:46:11;;;;;;;8.45;7.03;;;10.00;54.70;;;;;;5067071;28;20407;-55
2022/02/27 11:49:18;;;;;;;9.88;8.88;;;9.50;55.70;;;;;;5060710;28;20401;-57
2022/02/27 11:51:53;;;;;;;7.15;2.92;;;9.40;57.20;;;;;;5053691;28;20432;-56
2022/02/27 11:54:21;;;;;;;9.38;7.63;;;8.80;56.20;;;;;;5068516;28;20469;-55
2022/02/27 11:57:03;;;;;;;12.00;7.40;;;8.60;57.10;;;;;;5059258;28;20754;-56
2022/02/27 11:59:48;;;;;;;10.18;3.90;;;8.80;57.30;;;;;;5064589;28;20428;-55
2022/02/27 12:02:41;;;;;;;7.88;2.92;;;9.00;58.50;;;;;;5060770;28;20399;-57
2022/02/27 12:05:20;;;;;;;9.00;4.35;;;9.20;57.20;;;;;;5067795;28;20435;-55
2022/02/27 12:07:58;;;;;;;8.60;4.88;;;9.00;55.60;;;;;;5065863;28;20548;-55
2022/02/27 12:10:49;;;;;;;8.70;3.27;;;8.90;56.20;;;;;;5069188;28;20387;-55
2022/02/27 12:13:30;;;;;;;7.18;2.85;;;9.00;56.10;;;;;;5056775;28;20436;-54
2022/02/27 12:16:10;;;;;;;8.82;3.05;;;8.90;57.00;;;;;;5065839;28;20734;-53
2022/02/27 12:18:50;;;;;;;7.45;3.05;;;8.90;57.00;;;;;;5052902;28;20471;-56
2022/02/27 12:21:31;;;;;;;9.00;3.10;;;9.10;56.00;;;;;;5044327;28;20418;-56
2022/02/27 12:24:08;;;;;;;7.25;2.92;;;9.20;53.50;;;;;;5046904;28;20401;-56
2022/02/27 12:26:37;;;;;;;8.02;3.50;;;9.00;55.50;;;;;;5032068;28;20400;-56
2022/02/27 12:29:03;;;;;;;8.40;3.30;;;8.90;55.20;;;;;;5049422;28;20481;-54
2022/02/27 12:31:32;;;;;;;8.93;3.50;;;8.90;55.20;;;;;;5049392;28;20449;-54
2022/02/27 12:34:07;;;;;;;9.98;3.40;;;8.90;55.00;;;;;;5048441;28;20397;-56
2022/02/27 12:36:36;;;;;;;7.28;2.92;;;9.20;55.90;;;;;;5069794;28;20572;-56
2022/02/27 12:39:10;;;;;;;8.10;3.60;;;9.30;55.80;;;;;;5068193;28;20410;-55
2022/02/27 12:41:38;;;;;;;8.32;3.30;;;9.10;56.10;;;;;;5049690;28;20419;-55
2022/02/27 12:44:06;;;;;;;6.93;3.17;;;8.90;56.30;;;;;;5056403;28;20432;-54